Archival Weather

Chicago O'Hare International

Chicago, Illinois (KORD)

Report from: Thursday, June 23, 2022 2:51 PM CDT
Current time: Sunday, June 26, 2022 12:52 PM CDT

Current weather
Weather history
Weather forecast

Temperature28.9°C (84.0°F)
Heat index28.0°C (82.3°F)
Dew point9.4°C (48.9°F)
Winds 10 kts (5.1 m/s, 11.5 mph) East (100°)
Wind gusts 16 kts (8.2 m/s, 18.4 mph)
Visibility10 mi. (16.1 km)
Clouds Few clouds 25,000 ft. (7,620 m)
Altimeter30.03 in.Hg (1017 mB)
Relative humidity30 %
Density altitude1,644 ft. (501 m)
Sea-level pressure101.6 kPa (1016 mB, 30.01 in.Hg)
Remarks Automated weather observing station with precipitation discriminator
Flight conditions Visual Meteorological Conditions
Raw dataKORD 231951Z 10010G16KT 10SM FEW250 29/09 A3003 RMK AO2 SLP162 T02890094
An error has occurred. This application may no longer respond until reloaded. Reload 🗙